PWSweather.com
Personal Weather Stations
Station Observations
SHAHALMS1
Eftra, Falkenberg, HA

EftraFalkenberg, HA

Lat: 56.85, Lon: 12.65

Elevation: 140

Station Type:

http://hem.passagen.se/risarp101

High Low Average
Temperature 52.0°F11.1°C 39.7°F4.3°C 46.7°F8.2°C
Dew Point 49.5°F9.7°C 33.8°F1.0°C 40.9°F4.9°C
Winds 16.2 mph 26.1 kmh Calm Calm 7.0 mph SW11.3 kmh SW
Wind Gusts 40.8 mph65.7 kmh -- 17.0 mph27.4 kmh
Humidity 93% 69% 80%
Pressure 29.71 in1006.1 mb 29.24 in990.2 mb -
Precipitation 0.53 in13.5 mm - -
Hour Temp Dew Point Humidity Winds Wind Gusts Pressure Precip Precip Rate Daily Precip Total
12:00 AM 41.7°F5.4°C 35.7°F2.1°C 79% 0.1 mph E0.2 kmh E 3.2 mph5.1 kmh 29.71 in1006.1 mb 0.00 in0.0 mm 0.00 in0.0 mm 0.00 in0.0 mm
12:15 AM 42.1°F5.6°C 36.4°F2.4°C 80% Calm Calm -- 29.71 in1006.1 mb 0.00 in0.0 mm 0.00 in0.0 mm 0.00 in0.0 mm
12:30 AM 41.7°F5.4°C 35.7°F2.1°C 79% 0.8 mph E1.3 kmh E 4.7 mph7.6 kmh 29.71 in1006.1 mb 0.00 in0.0 mm 0.00 in0.0 mm 0.00 in0.0 mm
12:45 AM 40.8°F4.9°C 34.5°F1.4°C 78% Calm Calm -- 29.71 in1006.1 mb 0.00 in0.0 mm 0.00 in0.0 mm 0.00 in0.0 mm
01:00 AM 40.3°F4.6°C 34.3°F1.3°C 79% Calm Calm 1.8 mph2.9 kmh 29.71 in1006.1 mb 0.00 in0.0 mm 0.00 in0.0 mm 0.00 in0.0 mm
01:15 AM 40.5°F4.7°C 34.5°F1.4°C 79% Calm Calm -- 29.71 in1006.1 mb 0.00 in0.0 mm 0.00 in0.0 mm 0.00 in0.0 mm
01:30 AM 40.6°F4.8°C 35.0°F1.7°C 80% Calm Calm -- 29.71 in1006.1 mb 0.00 in0.0 mm 0.00 in0.0 mm 0.00 in0.0 mm
01:45 AM 40.5°F4.7°C 34.5°F1.4°C 79% Calm Calm -- 29.71 in1006.1 mb 0.00 in0.0 mm 0.00 in0.0 mm 0.00 in0.0 mm
02:00 AM 40.1°F4.5°C 34.1°F1.2°C 79% 0.2 mph ESE0.3 kmh ESE 2.5 mph4.0 kmh 29.68 in1005.1 mb 0.00 in0.0 mm 0.00 in0.0 mm 0.00 in0.0 mm
02:15 AM 39.9°F4.4°C 33.9°F1.1°C 79% 0.3 mph E0.5 kmh E 3.2 mph5.1 kmh 29.68 in1005.1 mb 0.00 in0.0 mm 0.00 in0.0 mm 0.00 in0.0 mm
02:30 AM 39.7°F4.3°C 33.8°F1.0°C 79% Calm Calm -- 29.65 in1004.1 mb 0.00 in0.0 mm 0.00 in0.0 mm 0.00 in0.0 mm
02:45 AM 39.9°F4.4°C 34.2°F1.2°C 80% Calm Calm -- 29.68 in1005.1 mb 0.00 in0.0 mm 0.00 in0.0 mm 0.00 in0.0 mm
03:00 AM 39.7°F4.3°C 34.1°F1.2°C 80% Calm Calm -- 29.68 in1005.1 mb 0.00 in0.0 mm 0.00 in0.0 mm 0.00 in0.0 mm
03:15 AM 40.3°F4.6°C 34.6°F1.4°C 80% Calm Calm -- 29.68 in1005.1 mb 0.00 in0.0 mm 0.00 in0.0 mm 0.00 in0.0 mm
03:30 AM 40.6°F4.8°C 35.3°F1.8°C 81% Calm Calm -- 29.68 in1005.1 mb 0.00 in0.0 mm 0.00 in0.0 mm 0.00 in0.0 mm
03:45 AM 41.7°F5.4°C 36.6°F2.6°C 82% 0.7 mph W1.1 kmh W 6.8 mph10.9 kmh 29.68 in1005.1 mb 0.00 in0.0 mm 0.00 in0.0 mm 0.00 in0.0 mm
04:00 AM 42.6°F5.9°C 37.5°F3.1°C 82% 0.3 mph NNW0.5 kmh NNW 4.3 mph6.9 kmh 29.68 in1005.1 mb 0.00 in0.0 mm 0.00 in0.0 mm 0.00 in0.0 mm
04:15 AM 44.6°F7.0°C 40.1°F4.5°C 84% 2.9 mph W4.7 kmh W 8.9 mph14.3 kmh 29.68 in1005.1 mb 0.00 in0.0 mm 0.00 in0.0 mm 0.00 in0.0 mm
04:30 AM 46.4°F8.0°C 42.1°F5.6°C 85% 6.0 mph W9.7 kmh W 16.5 mph26.6 kmh 29.68 in1005.1 mb 0.00 in0.0 mm 0.00 in0.0 mm 0.00 in0.0 mm
04:45 AM 46.6°F8.1°C 42.0°F5.6°C 84% 4.0 mph W6.4 kmh W 16.5 mph26.6 kmh 29.68 in1005.1 mb 0.00 in0.0 mm 0.00 in0.0 mm 0.00 in0.0 mm
05:00 AM 46.9°F8.3°C 41.7°F5.4°C 82% 4.4 mph W7.1 kmh W 11.1 mph17.9 kmh 29.65 in1004.1 mb 0.00 in0.0 mm 0.00 in0.0 mm 0.00 in0.0 mm
05:15 AM 47.3°F8.5°C 41.8°F5.4°C 81% 5.5 mph WNW8.9 kmh WNW 15.0 mph24.1 kmh 29.65 in1004.1 mb 0.00 in0.0 mm 0.00 in0.0 mm 0.00 in0.0 mm
05:30 AM 47.7°F8.7°C 41.5°F5.3°C 79% 5.0 mph W8.0 kmh W 13.6 mph21.9 kmh 29.65 in1004.1 mb 0.00 in0.0 mm 0.00 in0.0 mm 0.00 in0.0 mm
05:45 AM 47.7°F8.7°C 41.5°F5.3°C 79% 3.9 mph WSW6.3 kmh WSW 11.5 mph18.5 kmh 29.65 in1004.1 mb 0.00 in0.0 mm 0.00 in0.0 mm 0.00 in0.0 mm
06:00 AM 47.7°F8.7°C 41.5°F5.3°C 79% 5.6 mph W9.0 kmh W 17.2 mph27.7 kmh 29.62 in1003.0 mb 0.00 in0.0 mm 0.00 in0.0 mm 0.00 in0.0 mm
06:15 AM 47.5°F8.6°C 41.0°F5.0°C 78% 5.3 mph W8.5 kmh W 9.7 mph15.6 kmh 29.62 in1003.0 mb 0.00 in0.0 mm 0.00 in0.0 mm 0.00 in0.0 mm
06:30 AM 47.5°F8.6°C 41.0°F5.0°C 78% 5.8 mph W9.3 kmh W 17.2 mph27.7 kmh 29.62 in1003.0 mb 0.00 in0.0 mm 0.00 in0.0 mm 0.00 in0.0 mm
06:45 AM 47.5°F8.6°C 40.6°F4.8°C 77% 5.5 mph W8.9 kmh W 15.4 mph24.8 kmh 29.62 in1003.0 mb 0.00 in0.0 mm 0.00 in0.0 mm 0.00 in0.0 mm
07:00 AM 47.5°F8.6°C 40.3°F4.6°C 76% 5.9 mph W9.5 kmh W 11.8 mph19.0 kmh 29.62 in1003.0 mb 0.00 in0.0 mm 0.00 in0.0 mm 0.00 in0.0 mm
07:15 AM 47.7°F8.7°C 40.5°F4.7°C 76% 5.8 mph W9.3 kmh W 14.0 mph22.5 kmh 29.59 in1002.0 mb 0.00 in0.0 mm 0.00 in0.0 mm 0.00 in0.0 mm
07:30 AM 47.7°F8.7°C 40.5°F4.7°C 76% 6.4 mph W10.3 kmh W 13.6 mph21.9 kmh 29.62 in1003.0 mb 0.00 in0.0 mm 0.00 in0.0 mm 0.00 in0.0 mm
07:45 AM 47.5°F8.6°C 39.6°F4.2°C 74% 5.2 mph W8.4 kmh W 12.2 mph19.6 kmh 29.59 in1002.0 mb 0.00 in0.0 mm 0.00 in0.0 mm 0.00 in0.0 mm
08:00 AM 47.3°F8.5°C 39.8°F4.3°C 75% 4.9 mph W7.9 kmh W 11.1 mph17.9 kmh 29.62 in1003.0 mb 0.00 in0.0 mm 0.00 in0.0 mm 0.00 in0.0 mm
08:15 AM 47.5°F8.6°C 39.9°F4.4°C 75% 6.2 mph W10.0 kmh W 12.2 mph19.6 kmh 29.62 in1003.0 mb 0.00 in0.0 mm 0.00 in0.0 mm 0.00 in0.0 mm
08:30 AM 47.7°F8.7°C 39.4°F4.1°C 73% 5.9 mph W9.5 kmh W 13.6 mph21.9 kmh 29.62 in1003.0 mb 0.00 in0.0 mm 0.00 in0.0 mm 0.00 in0.0 mm
08:45 AM 47.8°F8.8°C 38.9°F3.8°C 71% 5.9 mph W9.5 kmh W 15.7 mph25.3 kmh 29.62 in1003.0 mb 0.00 in0.0 mm 0.00 in0.0 mm 0.00 in0.0 mm
09:00 AM 47.7°F8.7°C 38.4°F3.6°C 70% 6.6 mph WSW10.6 kmh WSW 16.8 mph27.0 kmh 29.59 in1002.0 mb 0.00 in0.0 mm 0.00 in0.0 mm 0.00 in0.0 mm
09:15 AM 47.5°F8.6°C 37.8°F3.2°C 69% 8.6 mph WSW13.8 kmh WSW 24.3 mph39.1 kmh 29.59 in1002.0 mb 0.00 in0.0 mm 0.00 in0.0 mm 0.00 in0.0 mm
09:30 AM 47.3°F8.5°C 38.7°F3.7°C 72% 6.2 mph SW10.0 kmh SW 14.0 mph22.5 kmh 29.59 in1002.0 mb 0.00 in0.0 mm 0.00 in0.0 mm 0.00 in0.0 mm
09:45 AM 47.3°F8.5°C 39.8°F4.3°C 75% 7.0 mph SW11.3 kmh SW 12.5 mph20.1 kmh 29.56 in1001.0 mb 0.00 in0.0 mm 0.00 in0.0 mm 0.00 in0.0 mm
10:00 AM 47.5°F8.6°C 41.3°F5.2°C 79% 6.8 mph SW10.9 kmh SW 12.2 mph19.6 kmh 29.56 in1001.0 mb 0.00 in0.0 mm 0.00 in0.0 mm 0.00 in0.0 mm
10:15 AM 47.3°F8.5°C 41.1°F5.1°C 79% 6.3 mph S10.1 kmh S 15.7 mph25.3 kmh 29.56 in1001.0 mb 0.05 in1.3 mm 0.20 in5.1 mm 0.05 in1.3 mm
10:30 AM 47.5°F8.6°C 41.9°F5.5°C 81% 6.1 mph S9.8 kmh S 15.4 mph24.8 kmh 29.53 in1000.0 mb 0.05 in1.3 mm 0.00 in0.0 mm 0.05 in1.3 mm
10:45 AM 47.8°F8.8°C 42.6°F5.9°C 82% 7.6 mph S12.2 kmh S 15.0 mph24.1 kmh 29.50 in999.0 mb 0.05 in1.3 mm 0.00 in0.0 mm 0.05 in1.3 mm
11:00 AM 48.0°F8.9°C 43.1°F6.2°C 83% 9.1 mph S14.6 kmh S 24.3 mph39.1 kmh 29.47 in998.0 mb 0.05 in1.3 mm 0.00 in0.0 mm 0.05 in1.3 mm
11:15 AM 48.2°F9.0°C 43.6°F6.4°C 84% 9.7 mph S15.6 kmh S 22.5 mph36.2 kmh 29.50 in999.0 mb 0.00 in0.0 mm 0.00 in0.0 mm 0.05 in1.3 mm
11:30 AM 48.0°F8.9°C 43.4°F6.3°C 84% 11.4 mph S18.3 kmh S 23.3 mph37.5 kmh 29.47 in998.0 mb 0.00 in0.0 mm 0.00 in0.0 mm 0.05 in1.3 mm
11:45 AM 47.8°F8.8°C 43.2°F6.2°C 84% 11.1 mph S17.9 kmh S 20.8 mph33.5 kmh 29.45 in997.3 mb 0.00 in0.0 mm 0.00 in0.0 mm 0.05 in1.3 mm
12:00 PM 47.8°F8.8°C 43.5°F6.4°C 85% 8.8 mph SSW14.2 kmh SSW 20.4 mph32.8 kmh 29.41 in995.9 mb 0.00 in0.0 mm 0.00 in0.0 mm 0.05 in1.3 mm
12:15 PM 47.7°F8.7°C 43.7°F6.5°C 86% 9.4 mph S15.1 kmh S 25.1 mph40.4 kmh 29.45 in997.3 mb 0.05 in1.3 mm 0.20 in5.1 mm 0.09 in2.3 mm
12:30 PM 47.7°F8.7°C 44.0°F6.7°C 87% 10.9 mph S17.5 kmh S 24.3 mph39.1 kmh 29.41 in995.9 mb 0.10 in2.5 mm 0.20 in5.1 mm 0.15 in3.8 mm
12:45 PM 48.0°F8.9°C 44.9°F7.2°C 89% 11.3 mph S18.2 kmh S 28.3 mph45.5 kmh 29.39 in995.3 mb 0.10 in2.5 mm 0.00 in0.0 mm 0.15 in3.8 mm
01:00 PM 48.4°F9.1°C 45.6°F7.6°C 90% 11.2 mph SSW18.0 kmh SSW 31.5 mph50.7 kmh 29.39 in995.3 mb 0.14 in3.6 mm 0.05 in1.3 mm 0.18 in4.6 mm
01:15 PM 49.1°F9.5°C 46.9°F8.3°C 92% 16.0 mph S25.7 kmh S 36.5 mph58.7 kmh 29.36 in994.2 mb 0.15 in3.8 mm 0.04 in1.0 mm 0.24 in6.1 mm
01:30 PM 49.6°F9.8°C 47.7°F8.7°C 93% 12.9 mph SW20.8 kmh SW 28.3 mph45.5 kmh 29.36 in994.2 mb 0.09 in2.3 mm 0.00 in0.0 mm 0.24 in6.1 mm
01:45 PM 50.7°F10.4°C 48.8°F9.3°C 93% 11.9 mph WSW19.2 kmh WSW 31.9 mph51.3 kmh 29.33 in993.2 mb 0.09 in2.3 mm 0.00 in0.0 mm 0.24 in6.1 mm
02:00 PM 51.4°F10.8°C 49.5°F9.7°C 93% 8.1 mph W13.0 kmh W 20.4 mph32.8 kmh 29.33 in993.2 mb 0.10 in2.5 mm 0.01 in0.3 mm 0.29 in7.4 mm
02:15 PM 51.8°F11.0°C 49.5°F9.7°C 92% 8.4 mph W13.5 kmh W 21.8 mph35.1 kmh 29.30 in992.2 mb 0.05 in1.3 mm 0.00 in0.0 mm 0.29 in7.4 mm
03:09 PM 51.8°F11.0°C 49.0°F9.4°C 90% 14.0 mph W22.5 kmh W 17.2 mph27.7 kmh 29.33 in993.2 mb 0.00 in0.0 mm 0.00 in0.0 mm 0.29 in7.4 mm
03:15 PM 51.8°F11.0°C 43.4°F6.3°C 73% 9.7 mph WNW15.6 kmh WNW 21.8 mph35.1 kmh 29.33 in993.2 mb 0.00 in0.0 mm 0.00 in0.0 mm 0.29 in7.4 mm
03:22 PM 51.8°F11.0°C 49.3°F9.6°C 91% 4.7 mph W7.6 kmh W 5.7 mph9.2 kmh 29.30 in992.2 mb 0.00 in0.0 mm 0.00 in0.0 mm 0.29 in7.4 mm
03:30 PM 52.0°F11.1°C 44.3°F6.8°C 75% 8.3 mph W13.4 kmh W 21.1 mph34.0 kmh 29.33 in993.2 mb 0.00 in0.0 mm 0.00 in0.0 mm 0.29 in7.4 mm
03:45 PM 51.8°F11.0°C 41.9°F5.5°C 69% 9.7 mph W15.6 kmh W 26.1 mph42.0 kmh 29.33 in993.2 mb 0.00 in0.0 mm 0.00 in0.0 mm 0.29 in7.4 mm
04:00 PM 52.0°F11.1°C 42.9°F6.1°C 71% 10.0 mph W16.1 kmh W 23.3 mph37.5 kmh 29.33 in993.2 mb 0.00 in0.0 mm 0.00 in0.0 mm 0.29 in7.4 mm
04:15 PM 50.0°F10.0°C 42.0°F5.6°C 74% 11.2 mph WNW18.0 kmh WNW 31.9 mph51.3 kmh 29.33 in993.2 mb 0.05 in1.3 mm 0.20 in5.1 mm 0.33 in8.4 mm
04:30 PM 48.9°F9.4°C 42.0°F5.6°C 77% 10.8 mph WNW17.4 kmh WNW 35.1 mph56.5 kmh 29.33 in993.2 mb 0.05 in1.3 mm 0.00 in0.0 mm 0.33 in8.4 mm
04:45 PM 49.3°F9.6°C 42.7°F5.9°C 78% 9.0 mph W14.5 kmh W 23.6 mph38.0 kmh 29.30 in992.2 mb 0.05 in1.3 mm 0.00 in0.0 mm 0.33 in8.4 mm
05:00 PM 48.6°F9.2°C 40.3°F4.6°C 73% 16.2 mph W26.1 kmh W 40.8 mph65.7 kmh 29.33 in993.2 mb 0.05 in1.3 mm 0.00 in0.0 mm 0.33 in8.4 mm
05:15 PM 47.8°F8.8°C 41.0°F5.0°C 77% 8.7 mph W14.0 kmh W 19.7 mph31.7 kmh 29.30 in992.2 mb 0.00 in0.0 mm 0.00 in0.0 mm 0.33 in8.4 mm
05:30 PM 48.4°F9.1°C 42.2°F5.7°C 79% 12.6 mph W20.3 kmh W 27.9 mph44.9 kmh 29.30 in992.2 mb 0.00 in0.0 mm 0.00 in0.0 mm 0.33 in8.4 mm
05:45 PM 48.6°F9.2°C 41.7°F5.4°C 77% 12.4 mph W20.0 kmh W 27.6 mph44.4 kmh 29.30 in992.2 mb 0.00 in0.0 mm 0.00 in0.0 mm 0.33 in8.4 mm
06:00 PM 48.9°F9.4°C 41.0°F5.0°C 74% 14.1 mph W22.7 kmh W 37.2 mph59.9 kmh 29.30 in992.2 mb 0.00 in0.0 mm 0.00 in0.0 mm 0.33 in8.4 mm
06:15 PM 47.8°F8.8°C 39.6°F4.2°C 73% 12.6 mph WNW20.3 kmh WNW 27.2 mph43.8 kmh 29.33 in993.2 mb 0.00 in0.0 mm 0.00 in0.0 mm 0.33 in8.4 mm
06:30 PM 46.9°F8.3°C 39.4°F4.1°C 75% 9.3 mph WNW15.0 kmh WNW 27.9 mph44.9 kmh 29.33 in993.2 mb 0.05 in1.3 mm 0.20 in5.1 mm 0.38 in9.7 mm
06:45 PM 46.9°F8.3°C 40.4°F4.7°C 78% 6.5 mph WNW10.5 kmh WNW 20.0 mph32.2 kmh 29.33 in993.2 mb 0.05 in1.3 mm 0.00 in0.0 mm 0.38 in9.7 mm
07:00 PM 46.0°F7.8°C 39.2°F4.0°C 77% 6.3 mph W10.1 kmh W 15.4 mph24.8 kmh 29.30 in992.2 mb 0.05 in1.3 mm 0.00 in0.0 mm 0.38 in9.7 mm
07:15 PM 47.5°F8.6°C 42.3°F5.7°C 82% 10.2 mph W16.4 kmh W 37.9 mph61.0 kmh 29.24 in990.2 mb 0.05 in1.3 mm 0.00 in0.0 mm 0.38 in9.7 mm
07:30 PM 48.4°F9.1°C 43.1°F6.2°C 82% 10.8 mph W17.4 kmh W 33.3 mph53.6 kmh 29.27 in991.2 mb 0.00 in0.0 mm 0.00 in0.0 mm 0.38 in9.7 mm
07:45 PM 48.2°F9.0°C 41.7°F5.4°C 78% 9.4 mph WNW15.1 kmh WNW 24.3 mph39.1 kmh 29.27 in991.2 mb 0.00 in0.0 mm 0.00 in0.0 mm 0.38 in9.7 mm
08:00 PM 48.4°F9.1°C 41.8°F5.4°C 78% 11.9 mph W19.2 kmh W 26.8 mph43.1 kmh 29.24 in990.2 mb 0.00 in0.0 mm 0.00 in0.0 mm 0.38 in9.7 mm
08:15 PM 48.0°F8.9°C 41.2°F5.1°C 77% 10.3 mph W16.6 kmh W 36.9 mph59.4 kmh 29.27 in991.2 mb 0.00 in0.0 mm 0.00 in0.0 mm 0.38 in9.7 mm
08:30 PM 46.8°F8.2°C 39.6°F4.2°C 76% 8.0 mph W12.9 kmh W 17.5 mph28.2 kmh 29.27 in991.2 mb 0.10 in2.5 mm 0.40 in10.2 mm 0.48 in12.2 mm
08:45 PM 46.0°F7.8°C 39.9°F4.4°C 79% 6.4 mph W10.3 kmh W 12.2 mph19.6 kmh 29.24 in990.2 mb 0.10 in2.5 mm 0.00 in0.0 mm 0.48 in12.2 mm
09:00 PM 45.5°F7.5°C 39.4°F4.1°C 79% 3.7 mph W6.0 kmh W 7.5 mph12.1 kmh 29.27 in991.2 mb 0.10 in2.5 mm 0.00 in0.0 mm 0.48 in12.2 mm
09:15 PM 46.4°F8.0°C 41.8°F5.4°C 84% 8.0 mph WNW12.9 kmh WNW 20.0 mph32.2 kmh 29.24 in990.2 mb 0.10 in2.5 mm 0.00 in0.0 mm 0.48 in12.2 mm
09:30 PM 47.7°F8.7°C 44.0°F6.7°C 87% 11.7 mph W18.8 kmh W 22.9 mph36.9 kmh 29.24 in990.2 mb 0.05 in1.3 mm 0.00 in0.0 mm 0.53 in13.5 mm
09:45 PM 46.9°F8.3°C 42.4°F5.8°C 84% 6.4 mph W10.3 kmh W 15.7 mph25.3 kmh 29.24 in990.2 mb 0.05 in1.3 mm 0.00 in0.0 mm 0.53 in13.5 mm
10:00 PM 46.8°F8.2°C 41.9°F5.5°C 83% 9.4 mph WNW15.1 kmh WNW 23.6 mph38.0 kmh 29.27 in991.2 mb 0.05 in1.3 mm 0.00 in0.0 mm 0.53 in13.5 mm
10:15 PM 46.9°F8.3°C 42.4°F5.8°C 84% 4.8 mph NW7.7 kmh NW 10.4 mph16.7 kmh 29.30 in992.2 mb 0.05 in1.3 mm 0.00 in0.0 mm 0.53 in13.5 mm
10:30 PM 46.8°F8.2°C 42.2°F5.7°C 84% 4.9 mph W7.9 kmh W 12.5 mph20.1 kmh 29.27 in991.2 mb 0.00 in0.0 mm 0.00 in0.0 mm 0.53 in13.5 mm
10:45 PM 46.9°F8.3°C 42.4°F5.8°C 84% 4.3 mph W6.9 kmh W 12.2 mph19.6 kmh 29.30 in992.2 mb 0.00 in0.0 mm 0.00 in0.0 mm 0.53 in13.5 mm
11:00 PM 47.1°F8.4°C 42.8°F6.0°C 85% 2.6 mph WNW4.2 kmh WNW 9.7 mph15.6 kmh 29.27 in991.2 mb 0.00 in0.0 mm 0.00 in0.0 mm 0.41 in10.4 mm
11:15 PM 46.8°F8.2°C 42.2°F5.7°C 84% 3.1 mph NW5.0 kmh NW 11.8 mph19.0 kmh 29.30 in992.2 mb 0.00 in0.0 mm 0.00 in0.0 mm 0.41 in10.4 mm
11:30 PM 46.4°F8.0°C 41.8°F5.4°C 84% 3.9 mph NNW6.3 kmh NNW 10.0 mph16.1 kmh 29.30 in992.2 mb 0.00 in0.0 mm 0.00 in0.0 mm 0.41 in10.4 mm
11:45 PM 45.9°F7.7°C 40.4°F4.7°C 81% 5.9 mph NW9.5 kmh NW 11.8 mph19.0 kmh 29.33 in993.2 mb 0.00 in0.0 mm 0.00 in0.0 mm 0.41 in10.4 mm